createdAt,value
2018-03-25T00:00:42.607Z,99065.73
2018-03-25T00:03:12.574Z,99066.42
2018-03-25T00:05:41.795Z,99062.07
2018-03-25T00:08:10.995Z,99058.42
2018-03-25T00:10:40.353Z,99062.79
2018-03-25T00:13:09.562Z,99062.77
2018-03-25T00:15:38.777Z,99057.06
2018-03-25T00:18:07.998Z,99061.95
2018-03-25T00:20:38.008Z,99062.76
2018-03-25T00:23:07.286Z,99061.00
2018-03-25T00:25:36.607Z,99063.53
2018-03-25T00:28:05.989Z,99066.52
2018-03-25T00:30:35.187Z,99065.88
2018-03-25T00:33:04.507Z,99068.95
2018-03-25T00:35:33.697Z,99063.81
2018-03-25T00:38:02.942Z,99064.02
2018-03-25T00:40:32.190Z,99068.85
2018-03-25T00:43:01.389Z,99068.98
2018-03-25T00:45:30.603Z,99063.05
2018-03-25T00:48:00.614Z,99063.63
2018-03-25T00:50:29.867Z,99064.42
2018-03-25T01:05:59.074Z,99062.58
2018-03-25T01:08:28.270Z,99062.27
2018-03-25T01:10:57.473Z,99063.72
2018-03-25T01:13:26.683Z,99063.25
2018-03-25T01:16:11.536Z,99066.97
2018-03-25T01:18:40.804Z,99065.55
2018-03-25T01:21:10.097Z,99064.32
2018-03-25T01:23:40.116Z,99061.71
2018-03-25T01:26:09.310Z,99063.72
2018-03-25T01:28:38.721Z,99059.69
2018-03-25T01:31:07.980Z,99056.77
2018-03-25T01:33:37.954Z,99058.48
2018-03-25T01:36:07.226Z,99053.77
2018-03-25T01:38:36.558Z,99056.53
2018-03-25T01:41:05.749Z,99048.55
2018-03-25T01:43:35.089Z,99049.90
2018-03-25T01:46:05.042Z,99053.77
2018-03-25T01:48:34.256Z,99051.87
2018-03-25T01:51:03.515Z,99049.90
2018-03-25T01:53:32.854Z,99058.08
2018-03-25T01:56:02.034Z,99047.33
2018-03-25T01:58:31.250Z,99047.69
2018-03-25T02:01:00.519Z,99053.92
2018-03-25T02:03:29.740Z,99060.88
2018-03-25T02:05:58.920Z,99059.30
2018-03-25T02:08:28.122Z,99056.02
2018-03-25T02:10:57.314Z,99057.20
2018-03-25T02:13:26.597Z,99052.53
2018-03-25T02:15:55.779Z,99047.28
2018-03-25T02:18:25.059Z,99054.38
2018-03-25T02:20:55.117Z,99053.79
2018-03-25T02:23:24.306Z,99052.36
2018-03-25T02:25:53.608Z,99057.66
2018-03-25T02:28:22.920Z,99057.80
2018-03-25T02:30:52.219Z,99054.38
2018-03-25T02:33:21.434Z,99058.88
2018-03-25T02:35:50.609Z,99062.27
2018-03-25T02:38:19.849Z,99063.22
2018-03-25T02:40:49.068Z,99065.86
2018-03-25T02:43:18.408Z,99063.33
2018-03-25T02:45:48.363Z,99065.47
2018-03-25T02:48:17.559Z,99067.19
2018-03-25T02:50:46.826Z,99069.44
2018-03-25T02:53:16.020Z,99067.50
2018-03-25T02:55:45.263Z,99075.62
2018-03-25T02:58:14.464Z,99067.84
2018-03-25T03:00:43.680Z,99070.94
2018-03-25T03:03:12.943Z,99072.02
2018-03-25T03:05:42.146Z,99080.95
2018-03-25T03:08:11.335Z,99080.80
2018-03-25T03:10:40.573Z,99081.19
2018-03-25T03:13:10.759Z,99083.39
2018-03-25T03:15:39.984Z,99086.27
2018-03-25T03:18:10.042Z,99085.61
2018-03-25T03:20:39.279Z,99092.56
2018-03-25T03:23:08.587Z,99089.19
2018-03-25T03:25:37.774Z,99089.98
2018-03-25T03:28:07.009Z,99097.82
2018-03-25T03:30:36.207Z,99099.86
2018-03-25T03:33:05.434Z,99096.78
2018-03-25T03:35:34.686Z,99100.56
2018-03-25T03:38:04.662Z,99108.45
2018-03-25T03:40:33.867Z,99101.72
2018-03-25T03:43:03.216Z,99103.01
2018-03-25T03:45:32.642Z,99108.67
2018-03-25T03:48:01.867Z,99112.48
2018-03-25T03:50:31.056Z,99106.17
2018-03-25T03:53:00.311Z,99109.63
2018-03-25T03:55:30.250Z,99115.26
2018-03-25T03:57:59.490Z,99120.38
2018-03-25T04:00:28.729Z,99117.03
2018-03-25T04:02:57.944Z,99121.78
2018-03-25T04:05:27.263Z,99124.87
2018-03-25T04:07:56.472Z,99123.19
2018-03-25T04:10:25.680Z,99121.55
2018-03-25T04:12:54.875Z,99126.94
2018-03-25T04:15:24.094Z,99125.66
2018-03-25T04:17:54.098Z,99126.11
2018-03-25T04:20:23.374Z,99117.83
2018-03-25T04:22:53.367Z,99126.36
2018-03-25T04:25:22.569Z,99132.42
2018-03-25T04:27:51.754Z,99132.18
2018-03-25T04:30:21.021Z,99128.34
2018-03-25T04:32:50.979Z,99132.66
2018-03-25T04:35:20.218Z,99129.89
2018-03-25T04:37:50.263Z,99131.63
2018-03-25T04:40:19.474Z,99140.89
2018-03-25T04:42:48.690Z,99138.81
2018-03-25T04:58:17.905Z,99142.64
2018-03-25T05:00:47.135Z,99134.80
2018-03-25T05:03:16.389Z,99144.56
2018-03-25T05:05:45.597Z,99138.79
2018-03-25T05:08:14.795Z,99141.47
2018-03-25T05:10:44.000Z,99142.75
2018-03-25T05:13:14.005Z,99140.56
2018-03-25T05:15:43.210Z,99145.36
2018-03-25T05:18:12.424Z,99144.19
2018-03-25T05:20:41.722Z,99155.76
2018-03-25T05:23:11.700Z,99154.56
2018-03-25T05:25:41.659Z,99157.55
2018-03-25T05:28:11.634Z,99157.17
2018-03-25T05:30:40.834Z,99152.06
2018-03-25T05:33:10.090Z,99162.61
2018-03-25T05:35:39.281Z,99152.53
2018-03-25T05:38:08.506Z,99164.02
2018-03-25T05:40:37.703Z,99165.61
2018-03-25T05:43:06.914Z,99166.10
2018-03-25T05:45:36.133Z,99173.27
2018-03-25T05:48:05.359Z,99173.77
2018-03-25T05:50:34.641Z,99178.92
2018-03-25T05:53:04.622Z,99172.75
2018-03-25T05:55:33.870Z,99185.08
2018-03-25T05:58:03.838Z,99186.95
2018-03-25T06:00:33.224Z,99186.84
2018-03-25T06:03:02.423Z,99185.60
2018-03-25T06:05:31.652Z,99189.57
2018-03-25T06:08:00.904Z,99193.59
2018-03-25T06:10:30.110Z,99189.81
2018-03-25T06:12:59.330Z,99197.69
2018-03-25T06:15:28.596Z,99191.70
2018-03-25T06:17:57.776Z,99195.42
2018-03-25T06:20:27.054Z,99199.63
2018-03-25T06:22:56.297Z,99200.80
2018-03-25T06:25:25.523Z,99204.74
2018-03-25T06:27:55.468Z,99204.59
2018-03-25T06:30:25.483Z,99207.52
2018-03-25T06:32:55.442Z,99212.53
2018-03-25T06:35:24.675Z,99218.19
2018-03-25T06:37:53.884Z,99216.72
2018-03-25T06:40:23.104Z,99220.12
2018-03-25T06:42:52.386Z,99223.66
2018-03-25T06:45:21.606Z,99224.77
2018-03-25T06:47:50.924Z,99226.94
2018-03-25T06:50:20.140Z,99232.31
2018-03-25T06:52:49.339Z,99230.64
2018-03-25T06:55:19.215Z,99233.41
2018-03-25T06:57:48.454Z,99239.87
2018-03-25T07:00:17.630Z,99239.63
2018-03-25T07:02:46.873Z,99245.09
2018-03-25T07:05:16.090Z,99254.02
2018-03-25T07:07:46.082Z,99255.87
2018-03-25T07:10:15.320Z,99257.30
2018-03-25T07:12:44.559Z,99266.39
2018-03-25T07:15:13.759Z,99266.70
2018-03-25T07:17:43.000Z,99278.45
2018-03-25T07:20:12.968Z,99271.81
2018-03-25T07:22:42.204Z,99276.46
2018-03-25T07:25:12.182Z,99283.45
2018-03-25T07:27:41.395Z,99283.98
2018-03-25T07:30:10.603Z,99287.52
2018-03-25T07:32:39.843Z,99295.11
2018-03-25T07:35:09.051Z,99292.39
2018-03-25T07:37:38.282Z,99297.11
2018-03-25T07:40:07.509Z,99298.30
2018-03-25T07:42:37.475Z,99305.91
2018-03-25T07:45:06.692Z,99307.95
2018-03-25T07:47:35.904Z,99314.98
2018-03-25T07:50:05.246Z,99315.16
2018-03-25T07:52:35.219Z,99320.83
2018-03-25T07:55:04.430Z,99317.75
2018-03-25T07:57:34.422Z,99320.19
2018-03-25T08:00:03.684Z,99321.55
2018-03-25T08:02:32.895Z,99325.77
2018-03-25T08:05:02.129Z,99324.37
2018-03-25T08:07:31.411Z,99329.45
2018-03-25T08:10:00.663Z,99338.58
2018-03-25T08:12:30.615Z,99333.48
2018-03-25T08:14:59.875Z,99331.02
2018-03-25T08:17:29.078Z,99332.36
2018-03-25T08:19:58.295Z,99335.84
2018-03-25T08:22:27.565Z,99339.83
2018-03-25T08:24:57.552Z,99331.75
2018-03-25T08:27:26.734Z,99335.92
2018-03-25T08:29:55.951Z,99340.16
2018-03-25T08:32:25.278Z,99344.08
2018-03-25T08:34:54.527Z,99348.74
2018-03-25T08:37:24.507Z,99347.32
2018-03-25T08:39:53.723Z,99347.61
2018-03-25T08:42:22.895Z,99355.00
2018-03-25T08:44:52.090Z,99358.98
2018-03-25T08:47:21.374Z,99351.03
2018-03-25T08:49:50.601Z,99365.59
2018-03-25T08:52:19.822Z,99359.45
2018-03-25T08:54:49.113Z,99361.47
2018-03-25T08:57:18.331Z,99363.83
2018-03-25T08:59:48.343Z,99368.95
2018-03-25T09:02:17.574Z,99363.98
2018-03-25T09:04:47.562Z,99359.80
2018-03-25T09:07:16.774Z,99369.13
2018-03-25T09:09:45.992Z,99356.38
2018-03-25T09:12:15.975Z,99357.75
2018-03-25T09:14:45.997Z,99353.68
2018-03-25T09:17:15.210Z,99354.95
2018-03-25T09:19:45.219Z,99362.96
2018-03-25T09:22:14.411Z,99358.44
2018-03-25T09:24:43.657Z,99360.59
2018-03-25T09:27:12.880Z,99358.14
2018-03-25T09:29:42.111Z,99366.52
2018-03-25T09:32:11.384Z,99355.88
2018-03-25T09:34:40.642Z,99364.66
2018-03-25T09:37:09.975Z,99364.84
2018-03-25T09:39:40.097Z,99362.69
2018-03-25T09:42:09.396Z,99368.16
2018-03-25T09:44:38.585Z,99363.97
2018-03-25T09:49:43.248Z,99371.42
2018-03-25T09:52:12.417Z,99375.97
2018-03-25T09:54:41.623Z,99385.52
2018-03-25T09:57:11.679Z,99381.80
2018-03-25T09:59:41.674Z,99383.16
2018-03-25T10:02:12.581Z,99386.09
2018-03-25T10:04:42.861Z,99388.50
2018-03-25T10:07:12.059Z,99392.97
2018-03-25T10:09:42.043Z,99394.94
2018-03-25T10:12:11.259Z,99406.23
2018-03-25T10:14:40.495Z,99400.03
2018-03-25T10:17:09.727Z,99399.59
2018-03-25T10:19:39.772Z,99405.34
2018-03-25T10:22:09.015Z,99400.61
2018-03-25T10:24:38.223Z,99400.88
2018-03-25T10:27:07.424Z,99406.03
2018-03-25T10:29:36.656Z,99405.23
2018-03-25T10:32:05.892Z,99411.17
2018-03-25T10:34:35.131Z,99401.77
2018-03-25T10:37:05.959Z,99416.23
2018-03-25T10:39:35.198Z,99410.28
2018-03-25T10:42:05.180Z,99410.90
2018-03-25T10:44:35.185Z,99411.86
2018-03-25T10:47:04.391Z,99415.06
2018-03-25T10:49:34.490Z,99409.25
2018-03-25T10:52:03.647Z,99414.09
2018-03-25T10:54:33.634Z,99406.64
2018-03-25T10:57:02.862Z,99407.32
2018-03-25T10:59:32.087Z,99404.64
2018-03-25T11:02:01.291Z,99405.07
2018-03-25T11:04:30.551Z,99408.57
2018-03-25T11:07:00.536Z,99405.33
2018-03-25T11:09:30.536Z,99412.13
2018-03-25T11:11:59.780Z,99409.03
2018-03-25T11:14:28.999Z,99411.71
2018-03-25T11:16:58.248Z,99408.75
2018-03-25T11:19:27.472Z,99414.80
2018-03-25T11:21:56.699Z,99415.61
2018-03-25T11:24:25.921Z,99417.72
2018-03-25T11:26:55.137Z,99415.44
2018-03-25T11:29:24.338Z,99412.89
2018-03-25T11:31:53.599Z,99416.31
2018-03-25T11:34:23.552Z,99417.41
2018-03-25T11:36:52.793Z,99421.94
2018-03-25T11:39:22.007Z,99416.63
2018-03-25T11:41:51.288Z,99422.73
2018-03-25T11:44:20.510Z,99419.39
2018-03-25T11:46:49.852Z,99418.86
2018-03-25T11:49:19.105Z,99416.45
2018-03-25T11:51:48.294Z,99417.02
2018-03-25T11:54:17.547Z,99422.63
2018-03-25T11:56:46.761Z,99424.34
2018-03-25T11:59:16.783Z,99431.23
2018-03-25T12:01:46.111Z,99426.44
2018-03-25T12:04:15.384Z,99435.15
2018-03-25T12:06:44.630Z,99429.64
2018-03-25T12:09:13.879Z,99427.95
2018-03-25T12:11:43.938Z,99423.97
2018-03-25T12:14:13.161Z,99414.39
2018-03-25T12:16:42.346Z,99427.15
2018-03-25T12:19:11.603Z,99420.49
2018-03-25T12:21:40.847Z,99420.18
2018-03-25T12:24:10.465Z,99417.17
2018-03-25T12:26:39.681Z,99426.20
2018-03-25T12:29:09.038Z,99419.57
2018-03-25T12:31:38.273Z,99421.94
2018-03-25T12:34:07.560Z,99425.42
2018-03-25T12:36:36.779Z,99419.53
2018-03-25T12:39:06.782Z,99422.72
2018-03-25T12:41:36.750Z,99419.78
2018-03-25T12:44:05.991Z,99424.39
2018-03-25T12:46:35.191Z,99438.76
2018-03-25T12:49:04.423Z,99434.48
2018-03-25T12:51:33.648Z,99423.83
2018-03-25T12:54:02.853Z,99434.48
2018-03-25T12:56:32.059Z,99426.70
2018-03-25T12:59:01.271Z,99435.95
2018-03-25T13:01:30.529Z,99430.19
2018-03-25T13:03:59.838Z,99432.12
2018-03-25T13:06:29.062Z,99420.76
2018-03-25T13:08:58.262Z,99424.05
2018-03-25T13:11:27.487Z,99421.37
2018-03-25T13:13:57.471Z,99429.90
2018-03-25T13:16:26.792Z,99428.19
2018-03-25T13:18:55.993Z,99423.03
2018-03-25T13:21:25.239Z,99422.73
2018-03-25T13:23:55.221Z,99423.84
2018-03-25T13:26:25.267Z,99426.37
2018-03-25T13:28:54.589Z,99428.77
2018-03-25T13:31:23.821Z,99422.80
2018-03-25T13:33:53.359Z,99425.77
2018-03-25T13:36:22.583Z,99432.37
2018-03-25T13:38:51.790Z,99429.52
2018-03-25T13:41:21.077Z,99439.13
2018-03-25T13:43:50.311Z,99439.63
2018-03-25T13:46:19.538Z,99434.02
2018-03-25T13:48:48.756Z,99433.11
2018-03-25T13:51:17.970Z,99434.19
2018-03-25T13:53:47.218Z,99425.08
2018-03-25T13:56:17.201Z,99442.14
2018-03-25T13:58:46.409Z,99432.92
2018-03-25T14:01:15.805Z,99440.34
2018-03-25T14:03:45.786Z,99434.89
2018-03-25T14:06:15.002Z,99442.16
2018-03-25T14:08:44.247Z,99441.69
2018-03-25T14:11:14.216Z,99438.47
2018-03-25T14:13:43.572Z,99432.73
2018-03-25T14:16:13.551Z,99429.83
2018-03-25T14:18:42.808Z,99433.05
2018-03-25T14:21:12.096Z,99431.39
2018-03-25T14:23:41.447Z,99433.46
2018-03-25T14:26:10.939Z,99427.80
2018-03-25T14:28:40.176Z,99432.54
2018-03-25T14:31:10.161Z,99432.50
2018-03-25T14:33:39.503Z,99433.58
2018-03-25T14:36:09.508Z,99440.09
2018-03-25T14:38:39.035Z,99435.47
2018-03-25T14:41:08.268Z,99435.61
2018-03-25T14:43:37.467Z,99448.00
2018-03-25T14:46:06.707Z,99436.76
2018-03-25T14:48:37.593Z,99435.66
2018-03-25T14:51:06.893Z,99442.42
2018-03-25T14:53:36.094Z,99440.39
2018-03-25T14:56:05.403Z,99443.08
2018-03-25T14:58:34.604Z,99444.61
2018-03-25T15:01:04.585Z,99445.01
2018-03-25T15:03:33.778Z,99446.69
2018-03-25T15:06:03.280Z,99455.38
2018-03-25T15:08:32.858Z,99454.44
2018-03-25T15:11:02.066Z,99448.74
2018-03-25T15:13:32.140Z,99457.84
2018-03-25T15:16:01.454Z,99454.48
2018-03-25T15:18:30.665Z,99452.90
2018-03-25T15:21:00.046Z,99452.90
2018-03-25T15:23:29.316Z,99455.30
2018-03-25T15:25:58.973Z,99457.63
2018-03-25T15:28:28.148Z,99464.19
2018-03-25T15:30:57.382Z,99463.53
2018-03-25T15:33:26.611Z,99473.09
2018-03-25T15:35:55.911Z,99463.56
2018-03-25T15:38:26.051Z,99469.80
2018-03-25T15:40:55.296Z,99466.41
2018-03-25T15:43:25.548Z,99467.63
2018-03-25T15:45:54.782Z,99471.53
2018-03-25T15:48:24.048Z,99475.64
2018-03-25T15:50:53.247Z,99475.56
2018-03-25T15:53:22.490Z,99474.98
2018-03-25T15:55:52.455Z,99478.05
2018-03-25T15:58:21.664Z,99482.45
2018-03-25T16:00:50.890Z,99486.30
2018-03-25T16:03:20.151Z,99484.20
2018-03-25T16:05:49.367Z,99489.70
2018-03-25T16:08:19.341Z,99488.70
2018-03-25T16:10:49.357Z,99483.79
2018-03-25T16:13:19.362Z,99489.80
2018-03-25T16:15:49.378Z,99487.68
2018-03-25T16:18:19.386Z,99494.44
2018-03-25T16:20:49.399Z,99494.72
2018-03-25T16:23:18.613Z,99496.38
2018-03-25T16:25:47.864Z,99498.98
2018-03-25T16:28:17.421Z,99505.22
2018-03-25T16:30:46.668Z,99508.02
2018-03-25T16:33:15.878Z,99511.92
2018-03-25T16:35:45.135Z,99509.56
2018-03-25T16:38:14.322Z,99514.97
2018-03-25T16:40:43.553Z,99516.82
2018-03-25T16:43:12.762Z,99510.42
2018-03-25T16:45:42.010Z,99514.93
2018-03-25T16:48:11.199Z,99518.27
2018-03-25T16:50:41.211Z,99516.39
2018-03-25T16:53:11.191Z,99520.37
2018-03-25T16:55:40.452Z,99522.56
2018-03-25T16:58:09.671Z,99524.72
2018-03-25T17:00:38.875Z,99528.17
2018-03-25T17:03:08.128Z,99529.88
2018-03-25T17:05:38.173Z,99533.95
2018-03-25T17:08:07.416Z,99539.84
2018-03-25T17:10:36.640Z,99543.08
2018-03-25T17:13:06.631Z,99540.92
2018-03-25T17:15:36.033Z,99557.45
2018-03-25T17:18:05.301Z,99556.27
2018-03-25T17:20:34.535Z,99551.52
2018-03-25T17:23:04.551Z,99557.91
2018-03-25T17:25:34.009Z,99560.11
2018-03-25T17:28:03.236Z,99558.47
2018-03-25T17:30:32.487Z,99558.87
2018-03-25T17:33:02.441Z,99560.45
2018-03-25T17:35:31.775Z,99564.01
2018-03-25T17:38:01.050Z,99568.95
2018-03-25T17:40:30.316Z,99566.32
2018-03-25T17:42:59.535Z,99564.56
2018-03-25T17:45:28.759Z,99571.92
2018-03-25T17:47:58.756Z,99575.33
2018-03-25T17:50:27.976Z,99577.52
2018-03-25T17:52:57.946Z,99580.80
2018-03-25T17:55:27.174Z,99578.82
2018-03-25T17:57:56.412Z,99581.94
2018-03-25T18:00:25.634Z,99586.44
2018-03-25T18:02:54.874Z,99588.54
2018-03-25T18:05:24.309Z,99586.11
2018-03-25T18:07:53.556Z,99586.82
2018-03-25T18:10:22.774Z,99606.06
2018-03-25T18:12:51.991Z,99603.13
2018-03-25T18:15:21.983Z,99603.55
2018-03-25T18:17:51.231Z,99610.94
2018-03-25T18:20:20.469Z,99616.88
2018-03-25T18:22:49.779Z,99613.60
2018-03-25T18:25:18.983Z,99622.59
2018-03-25T18:27:48.212Z,99630.06
2018-03-25T18:30:17.488Z,99627.45
2018-03-25T18:32:47.458Z,99626.75
2018-03-25T18:35:16.706Z,99633.20
2018-03-25T18:37:45.981Z,99633.09
2018-03-25T18:40:15.189Z,99638.44
2018-03-25T18:42:44.718Z,99631.30
2018-03-25T18:45:13.917Z,99628.47
2018-03-25T18:47:43.138Z,99641.14
2018-03-25T18:50:12.935Z,99638.48
2018-03-25T18:52:42.189Z,99643.16
2018-03-25T18:55:11.447Z,99646.72
2018-03-25T18:57:40.714Z,99651.62
2018-03-25T19:00:10.694Z,99656.73
2018-03-25T19:02:40.134Z,99660.02
2018-03-25T19:05:10.139Z,99656.80
2018-03-25T19:07:40.140Z,99668.67
2018-03-25T19:10:09.360Z,99668.28
2018-03-25T19:12:39.383Z,99669.64
2018-03-25T19:15:08.623Z,99665.95
2018-03-25T19:17:37.861Z,99672.13
2018-03-25T19:20:07.055Z,99674.11
2018-03-25T19:22:36.322Z,99673.53
2018-03-25T19:25:05.604Z,99677.04
2018-03-25T19:27:35.039Z,99672.54
2018-03-25T19:30:05.189Z,99681.23
2018-03-25T19:32:34.412Z,99679.55
2018-03-25T19:35:03.737Z,99682.38
2018-03-25T19:37:32.952Z,99681.96
2018-03-25T19:40:02.263Z,99683.92
2018-03-25T19:42:31.498Z,99687.03
2018-03-25T19:45:01.471Z,99692.14
2018-03-25T19:47:30.710Z,99690.56
2018-03-25T19:49:59.952Z,99685.67
2018-03-25T19:52:29.338Z,99689.24
2018-03-25T19:54:58.678Z,99685.45
2018-03-25T19:57:27.912Z,99691.14
2018-03-25T19:59:57.162Z,99689.39
2018-03-25T20:02:26.497Z,99691.95
2018-03-25T20:04:55.696Z,99696.49
2018-03-25T20:07:24.912Z,99692.84
2018-03-25T20:09:54.146Z,99703.36
2018-03-25T20:12:23.374Z,99696.91
2018-03-25T20:14:52.615Z,99698.42
2018-03-25T20:17:21.820Z,99699.77
2018-03-25T20:19:51.077Z,99702.44
2018-03-25T20:22:20.310Z,99698.83
2018-03-25T20:24:49.721Z,99703.41
2018-03-25T20:27:18.976Z,99703.42
2018-03-25T20:42:53.269Z,99717.73
2018-03-25T20:45:22.474Z,99713.33
2018-03-25T20:47:51.773Z,99722.16
2018-03-25T20:50:21.989Z,99721.66
2018-03-25T20:52:51.200Z,99724.98
2018-03-25T20:55:20.429Z,99725.78
2018-03-25T20:57:49.647Z,99722.23
2018-03-25T21:00:18.875Z,99719.75
2018-03-25T21:02:48.846Z,99730.66
2018-03-25T21:05:18.098Z,99725.72
2018-03-25T21:07:47.358Z,99725.72
2018-03-25T21:10:16.587Z,99727.88
2018-03-25T21:12:46.570Z,99729.30
2018-03-25T21:15:15.806Z,99729.97
2018-03-25T21:17:45.794Z,99733.25
2018-03-25T21:20:15.046Z,99737.08
2018-03-25T21:22:44.267Z,99734.87
2018-03-25T21:25:13.480Z,99732.53
2018-03-25T21:27:42.709Z,99730.84
2018-03-25T21:30:12.768Z,99732.36
2018-03-25T21:32:42.008Z,99739.38
2018-03-25T21:35:11.249Z,99736.86
2018-03-25T21:37:40.553Z,99740.27
2018-03-25T21:40:09.766Z,99740.20
2018-03-25T21:42:38.996Z,99738.69
2018-03-25T21:45:08.229Z,99741.63
2018-03-25T21:47:37.471Z,99742.52
2018-03-25T21:50:06.702Z,99740.93
2018-03-25T21:52:36.721Z,99745.33
2018-03-25T21:55:06.054Z,99744.77
2018-03-25T21:57:36.142Z,99740.93
2018-03-25T22:00:06.145Z,99728.67
2018-03-25T22:02:35.368Z,99739.80
2018-03-25T22:05:05.330Z,99748.20
2018-03-25T22:07:34.569Z,99744.23
2018-03-25T22:10:04.538Z,99745.35
2018-03-25T22:12:33.774Z,99747.23
2018-03-25T22:15:04.478Z,99744.30
2018-03-25T22:17:33.677Z,99746.21
2018-03-25T22:20:03.916Z,99749.78
2018-03-25T22:22:33.102Z,99749.39
2018-03-25T22:25:02.351Z,99750.05
2018-03-25T22:27:32.594Z,99750.14
2018-03-25T22:30:01.838Z,99752.03
2018-03-25T22:32:31.044Z,99751.00
2018-03-25T22:35:00.394Z,99749.25
2018-03-25T22:37:29.617Z,99758.27
2018-03-25T22:39:58.843Z,99752.29
2018-03-25T22:42:28.813Z,99751.17
2018-03-25T22:44:58.037Z,99749.48
2018-03-25T22:47:27.237Z,99746.16
2018-03-25T22:49:57.222Z,99746.49
2018-03-25T22:52:26.438Z,99753.34
2018-03-25T22:54:55.763Z,99747.37
2018-03-25T22:57:25.762Z,99756.13
2018-03-25T22:59:54.995Z,99756.86
2018-03-25T23:02:24.210Z,99753.52
2018-03-25T23:04:53.421Z,99755.73
2018-03-25T23:07:22.622Z,99754.78
2018-03-25T23:09:51.843Z,99754.84
2018-03-25T23:12:21.054Z,99754.45
2018-03-25T23:14:50.252Z,99761.36
2018-03-25T23:17:20.231Z,99756.11
2018-03-25T23:19:49.451Z,99751.48
2018-03-25T23:22:18.643Z,99752.75
2018-03-25T23:24:47.854Z,99756.35
2018-03-25T23:27:17.105Z,99758.67
2018-03-25T23:29:46.312Z,99770.94
2018-03-25T23:32:15.531Z,99771.52
2018-03-25T23:34:44.815Z,99776.45
2018-03-25T23:37:14.007Z,99768.91
2018-03-25T23:39:43.208Z,99766.50
2018-03-25T23:42:12.427Z,99771.98
2018-03-25T23:44:41.627Z,99766.11
2018-03-25T23:47:10.851Z,99767.53
2018-03-25T23:49:40.824Z,99764.09
2018-03-25T23:52:10.046Z,99762.91
2018-03-25T23:54:39.264Z,99764.73
2018-03-25T23:57:09.238Z,99760.28
2018-03-25T23:59:38.684Z,99772.95
